Time;durP1;ratioP1;P1;durP2;ratioP2;P2;SDS_P1;SDS_P2;PMS_P1;PMS_P2;Temp;Humidity;BMP_temperature;BMP_pressure;BME280_temperature;BME280_humidity;BME280_pressure;Samples;Min_cycle;Max_cycle;Signal;HPM_P1;HPM_P2
2020/12/21 00:00:12;;;;;;;5.03;2.63;;;21.20;49.70;;;;;;5065923;28;20039;-59
2020/12/21 00:02:39;;;;;;;3.60;2.28;;;21.20;49.70;;;;;;5078899;28;20029;-62
2020/12/21 00:05:05;;;;;;;4.65;2.70;;;21.20;49.80;;;;;;5084207;28;20082;-60
2020/12/21 00:07:31;;;;;;;4.88;2.55;;;21.20;49.80;;;;;;5084540;28;20081;-63
2020/12/21 00:09:57;;;;;;;6.03;2.50;;;21.20;49.90;;;;;;5083524;28;20024;-60
2020/12/21 00:12:23;;;;;;;4.18;2.60;;;21.20;49.90;;;;;;5083825;28;20035;-61
2020/12/21 00:14:49;;;;;;;3.58;2.22;;;21.20;49.90;;;;;;5084074;28;20028;-61
2020/12/21 00:17:14;;;;;;;4.78;2.40;;;21.20;49.90;;;;;;5084602;28;20088;-63
2020/12/21 00:19:40;;;;;;;3.90;2.22;;;21.20;49.90;;;;;;5067423;28;20504;-63
2020/12/21 00:22:05;;;;;;;4.40;2.20;;;21.20;49.90;;;;;;5083416;28;20104;-60
2020/12/21 00:24:31;;;;;;;4.28;2.47;;;21.20;50.00;;;;;;5069616;28;20047;-65
2020/12/21 00:26:57;;;;;;;3.80;2.30;;;21.10;49.90;;;;;;5085076;28;20081;-62
2020/12/21 00:29:22;;;;;;;3.30;2.08;;;21.10;49.90;;;;;;5078279;28;20020;-61
2020/12/21 00:31:48;;;;;;;4.72;2.08;;;21.10;50.00;;;;;;5063807;28;20083;-61
2020/12/21 00:34:16;;;;;;;5.40;2.40;;;21.10;49.90;;;;;;5077464;28;20031;-63
2020/12/21 00:36:50;;;;;;;4.03;2.28;;;21.10;50.00;;;;;;5084403;28;20032;-63
2020/12/21 00:39:16;;;;;;;4.47;2.15;;;21.10;50.00;;;;;;5085232;28;20133;-64
2020/12/21 00:41:43;;;;;;;3.65;2.20;;;21.10;50.00;;;;;;5058843;28;20028;-60
2020/12/21 00:44:09;;;;;;;5.30;2.30;;;21.10;50.00;;;;;;5078340;28;20111;-63
2020/12/21 00:46:34;;;;;;;4.30;2.05;;;21.00;50.00;;;;;;5070020;28;20034;-61
2020/12/21 00:49:01;;;;;;;3.25;2.13;;;21.00;50.00;;;;;;5083598;28;20741;-63
2020/12/21 00:51:27;;;;;;;4.63;2.35;;;21.00;50.00;;;;;;5083247;28;20079;-60
2020/12/21 00:53:53;;;;;;;4.68;2.20;;;21.00;50.10;;;;;;5064878;28;20418;-62
2020/12/21 00:56:20;;;;;;;3.35;2.05;;;21.10;50.10;;;;;;5080964;28;20032;-63
2020/12/21 00:58:47;;;;;;;4.07;2.00;;;21.00;50.10;;;;;;5092311;28;20036;-61
2020/12/21 01:01:15;;;;;;;3.38;2.15;;;21.00;50.10;;;;;;5087578;28;20077;-62
2020/12/21 01:03:41;;;;;;;5.28;2.35;;;21.00;50.10;;;;;;5083923;28;20084;-62
2020/12/21 01:06:07;;;;;;;3.15;2.00;;;21.00;50.10;;;;;;5058558;28;20047;-60
2020/12/21 01:08:33;;;;;;;3.88;2.13;;;21.00;50.20;;;;;;5078665;28;20077;-60
2020/12/21 01:10:59;;;;;;;3.63;2.17;;;21.00;50.30;;;;;;5081432;28;20043;-63
2020/12/21 01:13:25;;;;;;;4.60;2.33;;;21.00;50.20;;;;;;5069261;28;20417;-62
2020/12/21 01:15:51;;;;;;;3.20;1.90;;;21.00;50.30;;;;;;5084770;28;20028;-61
2020/12/21 01:18:16;;;;;;;4.30;2.10;;;21.00;50.20;;;;;;5085240;28;20032;-62
2020/12/21 01:20:42;;;;;;;3.20;1.98;;;21.00;50.30;;;;;;5087382;28;20115;-60
2020/12/21 01:23:08;;;;;;;4.13;2.08;;;20.90;50.30;;;;;;5088057;28;20508;-61
2020/12/21 01:25:34;;;;;;;3.78;2.10;;;20.90;50.30;;;;;;5088301;28;20037;-63
2020/12/21 01:28:00;;;;;;;3.35;1.92;;;20.90;50.30;;;;;;5081096;28;20028;-62
2020/12/21 01:30:25;;;;;;;3.40;2.10;;;20.90;50.30;;;;;;5059343;28;20050;-64
2020/12/21 01:32:51;;;;;;;3.80;2.10;;;20.90;50.30;;;;;;5051659;28;20086;-64
2020/12/21 01:35:17;;;;;;;4.00;2.00;;;20.90;50.30;;;;;;5065144;28;20099;-61
2020/12/21 01:37:43;;;;;;;3.13;1.98;;;20.90;50.30;;;;;;5063898;28;20583;-60
2020/12/21 01:40:10;;;;;;;3.65;2.20;;;20.90;50.30;;;;;;5060925;28;20691;-60
2020/12/21 01:42:36;;;;;;;2.92;2.00;;;20.90;50.30;;;;;;5069195;28;20059;-59
2020/12/21 01:45:06;;;;;;;4.03;2.22;;;20.80;50.20;;;;;;5065744;28;20029;-62
2020/12/21 01:47:32;;;;;;;5.55;2.10;;;20.80;50.20;;;;;;5060118;28;20366;-62
2020/12/21 01:49:57;;;;;;;3.08;1.88;;;20.80;50.20;;;;;;5067431;28;20033;-60
2020/12/21 01:52:23;;;;;;;2.85;2.10;;;20.80;50.20;;;;;;5063573;28;20025;-61
2020/12/21 01:54:49;;;;;;;3.70;2.00;;;20.80;50.20;;;;;;5065169;28;20039;-60
2020/12/21 01:57:15;;;;;;;3.13;1.85;;;20.80;50.20;;;;;;5064093;28;20036;-61
2020/12/21 01:59:42;;;;;;;3.00;2.00;;;20.80;50.20;;;;;;5060313;28;20520;-64
2020/12/21 02:02:09;;;;;;;3.55;2.13;;;20.80;50.20;;;;;;5067929;28;20028;-61
2020/12/21 02:04:35;;;;;;;3.47;1.95;;;20.70;50.10;;;;;;5070146;28;20047;-63
2020/12/21 02:07:01;;;;;;;3.15;2.10;;;20.80;50.20;;;;;;5057251;28;20025;-61
2020/12/21 02:09:28;;;;;;;4.35;2.10;;;20.80;50.20;;;;;;5066899;28;20029;-61
2020/12/21 02:11:54;;;;;;;3.00;2.00;;;20.70;50.10;;;;;;5062660;28;20039;-60
2020/12/21 02:14:20;;;;;;;3.70;2.00;;;20.70;50.10;;;;;;5069662;28;20554;-61
2020/12/21 02:16:46;;;;;;;2.95;1.80;;;20.70;50.10;;;;;;5055838;28;20717;-63
2020/12/21 02:19:12;;;;;;;3.15;2.00;;;20.70;50.10;;;;;;5064797;28;20111;-61
2020/12/21 02:21:38;;;;;;;2.90;1.80;;;20.70;50.10;;;;;;5065606;28;20082;-60
2020/12/21 02:24:03;;;;;;;3.10;2.00;;;20.70;50.10;;;;;;5063723;28;20025;-62
2020/12/21 02:26:30;;;;;;;3.00;1.80;;;20.70;50.10;;;;;;5065918;28;20044;-61
2020/12/21 02:28:57;;;;;;;3.15;1.95;;;20.70;50.10;;;;;;5063753;28;20050;-61
2020/12/21 02:31:23;;;;;;;3.45;1.98;;;20.70;50.10;;;;;;5057383;28;20150;-61
2020/12/21 02:33:49;;;;;;;3.78;2.00;;;20.70;50.10;;;;;;5080814;28;20105;-59
2020/12/21 02:36:15;;;;;;;3.15;1.90;;;20.70;50.10;;;;;;5078293;28;20135;-60
2020/12/21 02:38:41;;;;;;;3.45;1.98;;;20.60;50.00;;;;;;5090346;28;20047;-64
2020/12/21 02:41:08;;;;;;;2.97;1.90;;;20.60;50.00;;;;;;5080433;28;20043;-60
2020/12/21 02:43:33;;;;;;;4.35;2.10;;;20.60;50.00;;;;;;5089280;28;20060;-60
2020/12/21 02:45:59;;;;;;;2.53;1.83;;;20.60;50.00;;;;;;5082183;28;20075;-63
2020/12/21 02:48:25;;;;;;;3.17;1.80;;;20.60;50.00;;;;;;5088460;28;20032;-60
2020/12/21 02:50:51;;;;;;;4.40;2.00;;;20.60;50.00;;;;;;5086425;28;20032;-62
2020/12/21 02:53:17;;;;;;;3.28;1.90;;;20.60;50.00;;;;;;5084147;28;20119;-62
2020/12/21 02:55:46;;;;;;;3.25;1.90;;;20.60;50.00;;;;;;5086665;28;20086;-60
2020/12/21 02:58:12;;;;;;;3.35;1.80;;;20.60;50.00;;;;;;5081143;28;20031;-61
2020/12/21 03:00:38;;;;;;;2.95;1.75;;;20.60;50.00;;;;;;5086852;28;20064;-62
2020/12/21 03:03:05;;;;;;;2.72;1.70;;;20.60;50.00;;;;;;5083900;28;20516;-62
2020/12/21 03:05:31;;;;;;;2.70;1.70;;;20.50;50.00;;;;;;5085725;28;20089;-62
2020/12/21 03:07:57;;;;;;;2.70;1.70;;;20.50;50.00;;;;;;5083321;28;20072;-62
2020/12/21 03:10:23;;;;;;;2.97;1.85;;;20.50;50.00;;;;;;5060361;28;20107;-60
2020/12/21 03:12:48;;;;;;;2.17;1.63;;;20.50;50.00;;;;;;5077524;28;20090;-60
2020/12/21 03:15:14;;;;;;;2.90;1.73;;;20.50;50.00;;;;;;5077256;28;20020;-64
2020/12/21 03:17:39;;;;;;;2.50;1.77;;;20.50;50.00;;;;;;5079919;28;20107;-60
2020/12/21 03:20:05;;;;;;;2.55;1.75;;;20.50;50.00;;;;;;5080857;28;20541;-60
2020/12/21 03:22:31;;;;;;;3.20;1.80;;;20.50;50.00;;;;;;5080801;28;20037;-61
2020/12/21 03:25:00;;;;;;;2.65;1.50;;;20.50;50.00;;;;;;5083531;28;20024;-60
2020/12/21 03:27:26;;;;;;;2.78;1.52;;;20.50;50.00;;;;;;5087448;28;20024;-63
2020/12/21 03:29:52;;;;;;;2.95;1.70;;;20.50;50.00;;;;;;5084165;28;20838;-60
2020/12/21 03:32:18;;;;;;;3.78;1.90;;;20.50;50.00;;;;;;5085638;28;20024;-62
2020/12/21 03:34:43;;;;;;;2.30;1.60;;;20.40;50.00;;;;;;5086734;28;20059;-60
2020/12/21 03:37:09;;;;;;;2.63;1.60;;;20.40;50.00;;;;;;5086760;28;20066;-61
2020/12/21 03:39:35;;;;;;;2.15;1.52;;;20.40;50.00;;;;;;5082689;28;20249;-60
2020/12/21 03:42:01;;;;;;;2.33;1.60;;;20.40;50.00;;;;;;5082051;28;20073;-62
2020/12/21 03:44:27;;;;;;;2.38;1.50;;;20.40;50.00;;;;;;5088881;28;20020;-61
2020/12/21 03:46:53;;;;;;;2.53;1.50;;;20.40;50.00;;;;;;5085624;28;20149;-59
2020/12/21 03:49:18;;;;;;;2.95;1.85;;;20.40;50.00;;;;;;5087799;28;20027;-61
2020/12/21 03:51:44;;;;;;;2.78;1.60;;;20.40;50.00;;;;;;5086868;28;20146;-60
2020/12/21 03:54:10;;;;;;;2.40;1.45;;;20.40;50.00;;;;;;5084324;28;20024;-60
2020/12/21 03:56:35;;;;;;;2.17;1.55;;;20.40;50.00;;;;;;5077326;28;20032;-60
2020/12/21 03:59:01;;;;;;;2.30;1.45;;;20.40;50.00;;;;;;5070668;28;20038;-60
2020/12/21 04:01:27;;;;;;;2.67;1.70;;;20.30;50.00;;;;;;5086422;28;20765;-61
2020/12/21 04:03:53;;;;;;;2.72;1.52;;;20.30;50.00;;;;;;5088476;28;20089;-59
2020/12/21 04:06:18;;;;;;;4.00;1.48;;;20.40;50.10;;;;;;5078853;28;20028;-61
2020/12/21 04:08:44;;;;;;;2.42;1.50;;;20.40;50.10;;;;;;5088069;28;20051;-62
2020/12/21 04:11:10;;;;;;;2.88;1.67;;;20.40;50.10;;;;;;5087064;28;20846;-60
2020/12/21 04:13:36;;;;;;;2.90;1.40;;;20.30;50.00;;;;;;5088608;28;20137;-60
2020/12/21 04:16:01;;;;;;;2.35;1.50;;;20.30;50.00;;;;;;5086303;28;20036;-61
2020/12/21 04:18:27;;;;;;;2.47;1.55;;;20.30;50.10;;;;;;5087666;28;20028;-60
2020/12/21 04:20:53;;;;;;;2.42;1.40;;;20.30;50.10;;;;;;5086779;28;20136;-62
2020/12/21 04:23:18;;;;;;;2.50;1.50;;;20.30;50.10;;;;;;5084020;28;20031;-63
2020/12/21 04:25:44;;;;;;;1.95;1.40;;;20.30;50.00;;;;;;5083847;28;20214;-60
2020/12/21 04:28:09;;;;;;;1.90;1.33;;;20.30;50.10;;;;;;5085388;28;20043;-60
2020/12/21 04:30:35;;;;;;;2.13;1.40;;;20.30;50.10;;;;;;5081766;28;20028;-64
2020/12/21 04:33:01;;;;;;;2.75;1.60;;;20.30;50.10;;;;;;5085976;28;20524;-61
2020/12/21 04:35:26;;;;;;;2.30;1.50;;;20.30;50.10;;;;;;5079842;28;20035;-61
2020/12/21 04:37:52;;;;;;;1.80;1.27;;;20.30;50.20;;;;;;5087485;28;20035;-63
2020/12/21 04:40:18;;;;;;;2.58;1.50;;;20.30;50.20;;;;;;5084725;28;20042;-63
2020/12/21 04:42:51;;;;;;;2.55;1.40;;;20.30;50.10;;;;;;5075175;28;20117;-61
2020/12/21 04:45:17;;;;;;;2.15;1.40;;;20.30;50.10;;;;;;5084886;28;20462;-62
2020/12/21 04:47:44;;;;;;;2.88;1.80;;;20.20;50.10;;;;;;5085666;28;20292;-62
2020/12/21 04:50:12;;;;;;;2.90;1.80;;;20.20;50.10;;;;;;5079552;28;20722;-60
2020/12/21 04:52:47;;;;;;;2.60;1.40;;;20.20;50.10;;;;;;5071937;28;20016;-59
2020/12/21 04:55:16;;;;;;;2.30;1.30;;;20.20;50.20;;;;;;5084656;28;20064;-61
2020/12/21 04:57:52;;;;;;;3.10;1.23;;;20.20;50.10;;;;;;5087796;28;20107;-61
2020/12/21 05:00:17;;;;;;;2.55;1.60;;;20.20;50.10;;;;;;5085803;28;20047;-61
2020/12/21 05:02:43;;;;;;;2.13;1.38;;;20.20;50.20;;;;;;5082930;28;20037;-63
2020/12/21 05:05:08;;;;;;;2.33;1.50;;;20.20;50.20;;;;;;5083471;28;20154;-59
2020/12/21 05:07:34;;;;;;;1.98;1.30;;;20.20;50.20;;;;;;5073711;28;20063;-60
2020/12/21 05:10:09;;;;;;;2.17;1.40;;;20.20;50.20;;;;;;5068870;28;20118;-62
2020/12/21 05:12:37;;;;;;;1.90;1.30;;;20.20;50.20;;;;;;5067842;28;20023;-59
2020/12/21 05:15:14;;;;;;;2.07;1.40;;;20.20;50.20;;;;;;5085945;28;20374;-59
2020/12/21 05:17:39;;;;;;;2.60;1.60;;;20.20;50.20;;;;;;5085723;28;20077;-60
2020/12/21 05:20:05;;;;;;;2.03;1.33;;;20.20;50.40;;;;;;5087271;28;20111;-60
2020/12/21 05:22:31;;;;;;;1.95;1.50;;;20.20;50.20;;;;;;5067788;28;20040;-63
2020/12/21 05:25:07;;;;;;;1.63;1.20;;;20.20;50.20;;;;;;5085904;28;20439;-64
2020/12/21 05:27:33;;;;;;;2.20;1.52;;;20.20;50.70;;;;;;5081833;28;20016;-60
2020/12/21 05:29:59;;;;;;;2.10;1.40;;;20.20;50.20;;;;;;5082749;28;20120;-62
2020/12/21 05:32:25;;;;;;;3.03;1.50;;;20.20;50.20;;;;;;5084796;28;20412;-61
2020/12/21 05:34:51;;;;;;;2.25;1.35;;;20.20;50.20;;;;;;5068809;28;20024;-62
2020/12/21 05:37:19;;;;;;;1.77;1.20;;;20.20;50.20;;;;;;5060683;28;20050;-61
2020/12/21 05:39:55;;;;;;;1.75;1.08;;;20.20;50.20;;;;;;5084988;28;20422;-62
2020/12/21 05:42:22;;;;;;;2.08;1.30;;;20.20;50.20;;;;;;5083413;28;20075;-60
2020/12/21 05:44:51;;;;;;;2.05;1.38;;;20.20;50.10;;;;;;5084719;28;20351;-61
2020/12/21 05:47:17;;;;;;;1.85;1.33;;;20.20;50.10;;;;;;5086071;28;20043;-59
2020/12/21 05:49:54;;;;;;;1.70;1.20;;;20.20;50.10;;;;;;5078232;28;20048;-61
2020/12/21 05:52:26;;;;;;;1.98;1.35;;;20.20;50.10;;;;;;5081098;28;20032;-61
2020/12/21 05:54:52;;;;;;;1.80;1.25;;;20.20;50.20;;;;;;5082190;28;20107;-61
2020/12/21 05:57:19;;;;;;;1.83;1.30;;;20.20;50.10;;;;;;5077045;28;20032;-61
2020/12/21 05:59:51;;;;;;;1.88;1.30;;;20.20;50.60;;;;;;5089985;28;20129;-60
2020/12/21 06:02:19;;;;;;;1.88;1.27;;;20.10;50.10;;;;;;5082393;28;20085;-59
2020/12/21 06:04:49;;;;;;;2.33;1.33;;;20.20;50.10;;;;;;5089673;28;20123;-62
2020/12/21 06:07:20;;;;;;;;;;;20.10;50.10;;;;;;5089615;28;20028;-61
2020/12/21 06:09:49;;;;;;;2.92;1.15;;;20.20;50.10;;;;;;5089271;28;19920;-62
2020/12/21 06:12:21;;;;;;;2.10;1.27;;;20.10;50.50;;;;;;5089742;28;20483;-59
2020/12/21 06:14:49;;;;;;;1.80;1.40;;;20.20;50.10;;;;;;5086097;28;20101;-62
2020/12/21 06:17:15;;;;;;;2.17;1.30;;;20.20;50.10;;;;;;5088285;28;20484;-59
2020/12/21 06:19:41;;;;;;;2.15;1.35;;;20.10;50.00;;;;;;5087562;28;20125;-60
2020/12/21 06:22:07;;;;;;;2.20;1.40;;;20.10;50.00;;;;;;5088778;28;20027;-60
2020/12/21 06:24:38;;;;;;;2.00;1.38;;;20.10;50.00;;;;;;5089809;28;20032;-62
2020/12/21 06:27:14;;;;;;;1.98;1.30;;;20.10;50.10;;;;;;5086658;28;20024;-60
2020/12/21 06:29:41;;;;;;;1.60;1.27;;;20.10;50.00;;;;;;5072263;28;20118;-62
2020/12/21 06:32:08;;;;;;;1.90;1.25;;;20.10;50.00;;;;;;5071912;28;20032;-60
2020/12/21 06:34:36;;;;;;;2.00;1.40;;;20.10;50.00;;;;;;5089682;28;20069;-63
2020/12/21 06:37:11;;;;;;;1.98;1.48;;;20.10;50.10;;;;;;5089052;28;20035;-59
2020/12/21 06:39:38;;;;;;;2.10;1.40;;;20.10;50.00;;;;;;5090794;28;20048;-59
2020/12/21 06:42:20;;;;;;;2.00;1.20;;;20.10;50.10;;;;;;5071919;28;20024;-60
2020/12/21 06:44:46;;;;;;;2.10;1.40;;;20.10;50.00;;;;;;5086396;28;20074;-61
2020/12/21 06:47:12;;;;;;;1.83;1.23;;;20.10;50.00;;;;;;5086077;28;20047;-62
2020/12/21 06:49:39;;;;;;;1.70;1.20;;;20.10;50.00;;;;;;5061440;28;20024;-60
2020/12/21 06:52:05;;;;;;;2.22;1.50;;;20.10;50.00;;;;;;5086581;28;20560;-60
2020/12/21 06:54:31;;;;;;;2.17;1.40;;;20.10;50.00;;;;;;5087198;28;20039;-61
2020/12/21 06:56:56;;;;;;;1.60;1.20;;;20.10;50.00;;;;;;5076992;28;20095;-61
2020/12/21 06:59:24;;;;;;;1.83;1.30;;;20.10;50.00;;;;;;5067398;28;20078;-60
2020/12/21 07:01:51;;;;;;;2.05;1.25;;;20.10;50.00;;;;;;5087757;28;20035;-61
2020/12/21 07:04:19;;;;;;;1.92;1.35;;;20.10;50.00;;;;;;5070917;28;20036;-59
2020/12/21 07:06:46;;;;;;;1.92;1.40;;;20.10;50.00;;;;;;5089781;28;20044;-60
2020/12/21 07:09:13;;;;;;;1.75;1.30;;;20.10;50.00;;;;;;5088545;28;20024;-61
2020/12/21 07:11:40;;;;;;;1.42;1.20;;;20.10;49.90;;;;;;5089091;28;20016;-62
2020/12/21 07:14:07;;;;;;;1.60;1.25;;;20.10;50.00;;;;;;5087568;28;20134;-61
2020/12/21 07:16:33;;;;;;;1.85;1.30;;;20.10;49.90;;;;;;5081587;28;20355;-60
2020/12/21 07:18:59;;;;;;;1.80;1.40;;;20.10;49.90;;;;;;5085283;28;20024;-61
2020/12/21 07:21:24;;;;;;;1.52;1.00;;;20.10;49.90;;;;;;5060660;28;20024;-63
2020/12/21 07:23:50;;;;;;;1.83;1.23;;;20.10;49.90;;;;;;5089026;28;20031;-62
2020/12/21 07:26:17;;;;;;;1.70;1.20;;;20.10;49.90;;;;;;5080827;28;20451;-60
2020/12/21 07:28:46;;;;;;;1.58;1.20;;;20.10;49.90;;;;;;5087639;28;20036;-60
2020/12/21 07:31:17;;;;;;;2.17;1.45;;;20.10;49.90;;;;;;5076943;28;20035;-61
2020/12/21 07:33:55;;;;;;;1.50;1.10;;;20.10;50.40;;;;;;5096479;28;20028;-59
2020/12/21 07:36:34;;;;;;;1.75;1.10;;;20.10;49.90;;;;;;5086093;28;20437;-63
2020/12/21 07:39:10;;;;;;;1.95;1.30;;;20.00;49.90;;;;;;5077481;28;20032;-60
2020/12/21 07:41:39;;;;;;;1.98;1.30;;;20.10;50.00;;;;;;5083536;28;20040;-60
2020/12/21 07:44:21;;;;;;;1.73;1.20;;;20.00;49.90;;;;;;5064007;28;20039;-59
2020/12/21 07:47:05;;;;;;;1.75;1.25;;;20.10;50.00;;;;;;5084357;28;20039;-61
2020/12/21 07:49:33;;;;;;;1.85;1.25;;;20.00;49.90;;;;;;5083399;28;20072;-62
2020/12/21 07:52:00;;;;;;;1.60;1.20;;;20.00;49.90;;;;;;5087430;28;20162;-62
2020/12/21 07:54:27;;;;;;;1.90;1.30;;;20.00;49.90;;;;;;5080514;28;20130;-60
2020/12/21 07:57:00;;;;;;;2.03;1.30;;;20.00;49.90;;;;;;5083158;28;20020;-59
2020/12/21 07:59:25;;;;;;;1.65;1.20;;;20.00;49.90;;;;;;5084340;28;20090;-62
2020/12/21 08:01:59;;;;;;;2.05;1.40;;;20.00;49.90;;;;;;5083410;28;20439;-58
2020/12/21 08:04:26;;;;;;;1.92;1.40;;;20.00;50.00;;;;;;5086553;28;20449;-59
2020/12/21 08:06:52;;;;;;;1.50;1.17;;;20.00;49.90;;;;;;5084404;28;20028;-60
2020/12/21 08:09:19;;;;;;;1.95;1.30;;;20.00;50.00;;;;;;5088562;28;20077;-62
2020/12/21 08:11:44;;;;;;;1.85;1.25;;;20.00;50.00;;;;;;5084592;28;20168;-60
2020/12/21 08:14:16;;;;;;;1.65;1.20;;;20.00;50.00;;;;;;5066455;28;20521;-62
2020/12/21 08:16:41;;;;;;;2.00;1.27;;;20.00;50.00;;;;;;5085496;28;20038;-62
2020/12/21 08:19:20;;;;;;;2.00;1.40;;;20.00;49.90;;;;;;5081404;28;20412;-60
2020/12/21 08:21:46;;;;;;;1.70;1.13;;;20.00;50.00;;;;;;5084856;28;20066;-61
2020/12/21 08:24:12;;;;;;;1.88;1.30;;;20.00;49.90;;;;;;5087432;28;20482;-61
2020/12/21 08:26:37;;;;;;;1.58;1.20;;;20.00;49.90;;;;;;5086503;28;20509;-59
2020/12/21 08:29:04;;;;;;;1.90;1.50;;;20.00;49.90;;;;;;5071024;28;20417;-59
2020/12/21 08:31:30;;;;;;;1.73;1.25;;;20.00;50.00;;;;;;5078020;28;20024;-60
2020/12/21 08:34:05;;;;;;;2.30;1.40;;;20.00;50.10;;;;;;5084778;28;20477;-61
2020/12/21 08:36:39;;;;;;;2.78;1.50;;;20.00;50.00;;;;;;5084226;28;20043;-60
2020/12/21 08:39:19;;;;;;;2.05;1.30;;;20.00;50.00;;;;;;5086802;28;20107;-59
2020/12/21 08:41:58;;;;;;;2.97;2.03;;;20.00;50.30;;;;;;5082588;28;20113;-59
2020/12/21 08:44:26;;;;;;;4.10;3.40;;;20.00;46.90;;;;;;5080216;28;20028;-59
2020/12/21 08:46:57;;;;;;;6.82;4.95;;;19.90;43.90;;;;;;5076339;28;20547;-59
2020/12/21 08:49:24;;;;;;;6.47;4.72;;;19.80;42.10;;;;;;5067518;28;20017;-59
2020/12/21 08:51:50;;;;;;;6.82;5.43;;;19.60;41.30;;;;;;5084967;28;20020;-62
2020/12/21 08:54:16;;;;;;;7.25;5.60;;;19.50;40.50;;;;;;5078499;28;20017;-62
2020/12/21 08:56:56;;;;;;;7.70;5.75;;;19.40;40.20;;;;;;5084096;28;20350;-61
2020/12/21 08:59:22;;;;;;;7.22;5.45;;;19.40;39.60;;;;;;5079590;28;20074;-62
2020/12/21 09:01:48;;;;;;;5.32;4.50;;;19.30;40.30;;;;;;5082922;28;20051;-61
2020/12/21 09:04:14;;;;;;;5.50;4.47;;;19.30;41.20;;;;;;5076909;28;20020;-61
2020/12/21 09:06:39;;;;;;;4.72;3.92;;;19.30;42.00;;;;;;5084982;28;20056;-60
2020/12/21 09:09:06;;;;;;;5.43;4.07;;;19.40;42.80;;;;;;5086282;28;20051;-61
2020/12/21 09:11:32;;;;;;;4.45;3.60;;;19.40;43.20;;;;;;5074577;28;20508;-59
2020/12/21 09:13:58;;;;;;;5.60;3.83;;;19.40;43.50;;;;;;5086267;28;20179;-59
2020/12/21 09:16:28;;;;;;;4.55;3.70;;;19.40;43.60;;;;;;5083849;28;20035;-58
2020/12/21 09:18:55;;;;;;;4.47;3.58;;;19.40;43.90;;;;;;5078094;28;20027;-61
2020/12/21 09:21:26;;;;;;;4.70;3.65;;;19.40;44.10;;;;;;5085125;28;20061;-62
2020/12/21 09:23:54;;;;;;;5.10;3.80;;;19.40;44.30;;;;;;5084831;28;20032;-60
2020/12/21 09:26:20;;;;;;;5.10;3.85;;;19.40;45.00;;;;;;5083632;28;20040;-62
2020/12/21 09:28:47;;;;;;;4.53;3.65;;;19.40;44.70;;;;;;5062140;28;667274;-58
2020/12/21 09:31:13;;;;;;;4.45;3.47;;;19.40;44.80;;;;;;5082618;28;20096;-59
2020/12/21 09:33:40;;;;;;;4.90;3.50;;;19.40;45.10;;;;;;5085754;28;20032;-58
2020/12/21 09:36:07;;;;;;;4.43;3.25;;;19.40;45.20;;;;;;5076991;28;20032;-65
2020/12/21 09:38:33;;;;;;;4.30;3.47;;;19.40;45.40;;;;;;5085980;28;20604;-59
2020/12/21 09:40:58;;;;;;;4.43;3.42;;;19.40;45.60;;;;;;5068869;28;20056;-62
2020/12/21 09:43:24;;;;;;;4.50;3.42;;;19.40;45.60;;;;;;5072362;28;20373;-62
2020/12/21 09:45:50;;;;;;;4.55;3.50;;;19.40;45.80;;;;;;5066187;28;20054;-66
2020/12/21 09:48:16;;;;;;;4.50;3.28;;;19.40;46.10;;;;;;5079205;28;20169;-64
2020/12/21 09:50:41;;;;;;;4.40;3.30;;;19.40;46.10;;;;;;5086912;28;20089;-67
2020/12/21 09:53:07;;;;;;;3.90;2.92;;;19.40;46.70;;;;;;5084507;28;20788;-65
2020/12/21 09:55:33;;;;;;;3.83;3.10;;;19.40;46.30;;;;;;5082635;28;20032;-65
2020/12/21 09:57:59;;;;;;;3.83;3.10;;;19.40;46.50;;;;;;5076722;28;20490;-65
2020/12/21 10:00:24;;;;;;;4.82;3.60;;;19.40;46.50;;;;;;5066492;28;20152;-64
2020/12/21 10:02:50;;;;;;;4.15;3.13;;;19.40;46.50;;;;;;5082879;28;20122;-65
2020/12/21 10:05:16;;;;;;;4.18;3.03;;;19.40;46.70;;;;;;5081696;28;20085;-67
2020/12/21 10:07:41;;;;;;;3.92;3.00;;;19.40;46.70;;;;;;5085455;28;20130;-69
2020/12/21 10:10:07;;;;;;;4.00;3.00;;;19.40;46.80;;;;;;5076979;28;20447;-65
2020/12/21 10:12:32;;;;;;;4.03;3.10;;;19.40;46.90;;;;;;5079592;28;20028;-64
2020/12/21 10:14:58;;;;;;;4.22;2.92;;;19.40;46.90;;;;;;5085602;28;20139;-64
2020/12/21 10:17:23;;;;;;;4.10;3.00;;;19.40;47.00;;;;;;5085010;28;20085;-64
2020/12/21 10:19:49;;;;;;;4.50;3.28;;;19.40;47.10;;;;;;5084379;28;20434;-63
2020/12/21 10:22:15;;;;;;;3.97;3.05;;;19.40;47.10;;;;;;5081610;28;20051;-63
2020/12/21 10:24:40;;;;;;;4.03;3.13;;;19.40;47.20;;;;;;5084135;28;20050;-66
2020/12/21 10:27:06;;;;;;;3.90;2.85;;;19.40;47.20;;;;;;5084735;28;20044;-64
2020/12/21 10:29:32;;;;;;;3.60;2.65;;;19.40;47.40;;;;;;5083000;28;20129;-67
2020/12/21 10:31:58;;;;;;;4.03;2.80;;;19.40;47.40;;;;;;5083194;28;20032;-68
2020/12/21 10:34:24;;;;;;;3.80;2.80;;;19.40;47.40;;;;;;5082626;28;20048;-63
2020/12/21 10:36:51;;;;;;;3.17;2.60;;;19.40;47.40;;;;;;5084806;28;20067;-64
2020/12/21 10:39:17;;;;;;;3.70;2.70;;;19.40;47.50;;;;;;5083658;28;20419;-65
2020/12/21 10:41:43;;;;;;;3.60;2.63;;;19.40;47.60;;;;;;5082704;28;20113;-65
2020/12/21 10:44:08;;;;;;;3.75;2.83;;;19.40;47.60;;;;;;5081389;28;20040;-60
2020/12/21 10:46:34;;;;;;;5.40;2.60;;;19.40;47.90;;;;;;5073730;28;20028;-64
2020/12/21 10:48:59;;;;;;;4.32;2.58;;;19.40;48.60;;;;;;5087652;28;20039;-64
2020/12/21 10:51:29;;;;;;;4.75;2.65;;;19.40;49.50;;;;;;5087905;28;20119;-64
2020/12/21 10:53:55;;;;;;;;;;;19.50;49.90;;;;;;5073307;28;20039;-63
2020/12/21 10:56:21;;;;;;;4.63;2.13;;;19.50;50.50;;;;;;5087331;28;19912;-67
2020/12/21 10:58:47;;;;;;;3.72;2.50;;;19.40;50.50;;;;;;5088223;28;20642;-65
2020/12/21 11:01:14;;;;;;;4.38;2.45;;;19.50;50.70;;;;;;5087545;28;20535;-64
2020/12/21 11:03:39;;;;;;;5.13;2.33;;;19.50;51.10;;;;;;5081046;28;20450;-68
2020/12/21 11:06:05;;;;;;;6.90;2.63;;;19.50;51.70;;;;;;5089131;28;20135;-66
2020/12/21 11:08:31;;;;;;;5.85;2.47;;;19.50;52.10;;;;;;5082867;28;20035;-63
2020/12/21 11:10:56;;;;;;;6.75;2.63;;;19.60;52.20;;;;;;5080075;28;20557;-62
2020/12/21 11:13:22;;;;;;;5.60;2.70;;;19.60;52.20;;;;;;5085777;28;20039;-64
2020/12/21 11:15:47;;;;;;;4.00;2.30;;;19.60;52.20;;;;;;5086478;28;20030;-64
2020/12/21 11:18:13;;;;;;;5.93;2.53;;;19.60;52.30;;;;;;5086840;28;20107;-63
2020/12/21 11:20:39;;;;;;;5.80;2.60;;;19.60;52.30;;;;;;5079400;28;20027;-63
2020/12/21 11:23:04;;;;;;;5.65;2.40;;;19.60;52.40;;;;;;5073056;28;20120;-63
2020/12/21 11:25:30;;;;;;;4.43;2.33;;;19.60;52.60;;;;;;5080818;28;20044;-65
2020/12/21 11:27:58;;;;;;;4.05;2.22;;;19.60;52.40;;;;;;5084575;28;20093;-66
2020/12/21 11:30:24;;;;;;;5.93;2.30;;;19.60;52.40;;;;;;5081988;28;20067;-62
2020/12/21 11:32:49;;;;;;;4.47;2.30;;;19.60;52.50;;;;;;5062182;28;20449;-64
2020/12/21 11:35:15;;;;;;;4.43;2.28;;;19.60;52.50;;;;;;5077984;28;20027;-63
2020/12/21 11:37:40;;;;;;;3.60;2.50;;;19.60;52.50;;;;;;5060332;28;20032;-63
2020/12/21 11:40:06;;;;;;;4.63;2.60;;;19.60;52.60;;;;;;5083695;28;20039;-67
2020/12/21 11:42:32;;;;;;;6.53;2.80;;;19.60;52.60;;;;;;5081071;28;20086;-67
2020/12/21 11:44:57;;;;;;;4.70;2.97;;;19.60;52.40;;;;;;5067411;28;20036;-64
2020/12/21 11:47:23;;;;;;;4.78;2.20;;;19.70;52.40;;;;;;5084815;28;20020;-66
2020/12/21 11:49:49;;;;;;;4.57;2.42;;;19.70;52.50;;;;;;5084275;28;20032;-61
2020/12/21 11:52:14;;;;;;;4.60;2.67;;;19.80;52.50;;;;;;5078597;28;20124;-65
2020/12/21 11:54:40;;;;;;;5.47;2.30;;;19.80;52.60;;;;;;5081507;28;20029;-67
2020/12/21 11:57:05;;;;;;;4.30;2.50;;;19.90;52.90;;;;;;5073707;28;20024;-61
2020/12/21 11:59:31;;;;;;;4.30;2.38;;;20.00;53.10;;;;;;5076036;28;20086;-63
2020/12/21 12:02:03;;;;;;;3.67;2.08;;;20.10;53.00;;;;;;5080315;28;20062;-66
2020/12/21 12:04:29;;;;;;;2.95;2.00;;;20.20;52.90;;;;;;5083703;28;20115;-65
2020/12/21 12:06:59;;;;;;;4.57;2.30;;;20.30;52.80;;;;;;5082990;28;20027;-65
2020/12/21 12:09:25;;;;;;;3.03;1.83;;;20.30;52.80;;;;;;5049468;28;20034;-65
2020/12/21 12:11:52;;;;;;;5.60;2.25;;;20.40;52.70;;;;;;5078100;28;20045;-65
2020/12/21 12:14:17;;;;;;;4.35;2.25;;;20.40;52.60;;;;;;5076111;28;20028;-64
2020/12/21 12:16:43;;;;;;;4.28;2.10;;;20.50;52.60;;;;;;5068212;28;20032;-67
2020/12/21 12:19:09;;;;;;;3.85;1.88;;;20.60;52.50;;;;;;5084034;28;21022;-62
2020/12/21 12:21:34;;;;;;;3.65;1.98;;;20.60;52.40;;;;;;5079291;28;20028;-64
2020/12/21 12:24:00;;;;;;;3.85;1.90;;;20.70;52.30;;;;;;5078404;28;20126;-63
2020/12/21 12:26:26;;;;;;;3.20;2.00;;;20.70;52.20;;;;;;5082634;28;20032;-63
2020/12/21 12:28:56;;;;;;;3.83;2.20;;;20.70;52.10;;;;;;5083472;28;20038;-63
2020/12/21 12:31:22;;;;;;;6.13;2.47;;;20.70;52.60;;;;;;5081878;28;20020;-63
2020/12/21 12:33:49;;;;;;;5.00;2.53;;;20.90;52.40;;;;;;5079720;28;20032;-61
2020/12/21 12:36:22;;;;;;;5.68;3.17;;;21.00;52.10;;;;;;5077810;28;20030;-62
2020/12/21 12:38:48;;;;;;;4.47;2.75;;;21.20;51.70;;;;;;5081395;28;20478;-64
2020/12/21 12:41:14;;;;;;;4.93;2.45;;;21.30;51.40;;;;;;5063748;28;20081;-61
2020/12/21 12:43:40;;;;;;;5.57;2.58;;;21.30;51.20;;;;;;5082110;28;20028;-61
2020/12/21 12:46:07;;;;;;;4.80;2.50;;;21.20;51.60;;;;;;5079209;28;20036;-64